Time;durP1;ratioP1;P1;durP2;ratioP2;P2;SDS_P1;SDS_P2;PMS_P1;PMS_P2;Temp;Humidity;BMP_temperature;BMP_pressure;BME280_temperature;BME280_humidity;BME280_pressure;Samples;Min_cycle;Max_cycle;Signal;HPM_P1;HPM_P2
2023/01/03 00:00:18;;;;;;;6.25;2.38;;;;;;;4.12;95.01;100612.53;5067124;28;20048;-47
2023/01/03 00:02:45;;;;;;;3.63;1.08;;;;;;;4.14;94.84;100618.50;5067832;28;20041;-47
2023/01/03 00:05:11;;;;;;;5.35;1.52;;;;;;;4.18;95.17;100607.75;5067622;28;20063;-52
2023/01/03 00:07:38;;;;;;;5.60;1.50;;;;;;;4.24;95.05;100607.31;5067626;28;20052;-48
2023/01/03 00:10:08;;;;;;;12.45;1.45;;;;;;;4.31;95.34;100596.75;5066501;28;20041;-51
2023/01/03 00:12:37;;;;;;;4.18;0.95;;;;;;;4.44;95.69;100606.09;5067864;28;20049;-47
2023/01/03 00:15:04;;;;;;;5.45;1.48;;;;;;;4.54;95.43;100594.06;5067747;28;20045;-49
2023/01/03 00:17:31;;;;;;;4.07;1.00;;;;;;;4.58;95.03;100589.59;5076841;28;20048;-47
2023/01/03 00:19:57;;;;;;;7.40;1.10;;;;;;;4.63;95.49;100584.00;5065685;28;20049;-50
2023/01/03 00:22:24;;;;;;;1.92;0.80;;;;;;;4.75;95.62;100571.38;5067566;28;20052;-47
2023/01/03 00:24:52;;;;;;;6.00;1.20;;;;;;;4.91;95.63;100563.56;5067369;28;20505;-45
2023/01/03 00:27:18;;;;;;;8.32;1.35;;;;;;;4.99;95.63;100551.84;5066594;28;20048;-45
2023/01/03 00:29:45;;;;;;;8.85;1.63;;;;;;;5.04;95.43;100542.66;5067205;28;20048;-45
2023/01/03 00:32:12;;;;;;;6.95;1.45;;;;;;;5.08;95.84;100532.72;5067219;28;20059;-45
2023/01/03 00:34:42;;;;;;;7.13;1.40;;;;;;;5.08;95.87;100517.06;5080546;28;20040;-45
2023/01/03 00:37:10;;;;;;;6.88;1.75;;;;;;;5.09;95.97;100513.16;5067377;28;20045;-45
2023/01/03 00:39:37;;;;;;;4.57;1.20;;;;;;;5.14;96.13;100510.28;5066858;28;20488;-47
2023/01/03 00:42:03;;;;;;;7.38;3.20;;;;;;;5.20;96.36;100498.06;5066128;28;20608;-52
2023/01/03 00:44:30;;;;;;;6.90;1.55;;;;;;;5.28;96.44;100491.00;5066100;28;20123;-46
2023/01/03 00:46:58;;;;;;;5.05;1.05;;;;;;;5.34;96.69;100490.56;5067209;28;20132;-46
2023/01/03 00:49:25;;;;;;;6.00;1.10;;;;;;;5.40;96.61;100486.53;5066997;28;20418;-46
2023/01/03 00:51:54;;;;;;;5.72;1.70;;;;;;;5.49;96.98;100472.81;5067127;28;20041;-47
2023/01/03 00:54:21;;;;;;;5.30;1.08;;;;;;;5.52;96.88;100473.00;5066987;28;20044;-45
2023/01/03 00:56:49;;;;;;;7.80;1.80;;;;;;;5.57;96.82;100471.22;5067060;28;20398;-45
2023/01/03 00:59:17;;;;;;;10.35;1.10;;;;;;;5.54;96.94;100465.25;5066726;28;20051;-45
2023/01/03 01:01:50;;;;;;;4.10;1.17;;;;;;;5.54;96.84;100447.97;5065957;28;20044;-45
2023/01/03 01:04:37;;;;;;;5.85;1.77;;;;;;;5.56;97.13;100442.19;5066273;28;20072;-45
2023/01/03 01:07:04;;;;;;;4.32;0.90;;;;;;;5.55;97.26;100430.38;5065752;28;20549;-45
2023/01/03 01:09:34;;;;;;;4.72;1.27;;;;;;;5.60;97.83;100421.16;5066670;28;20059;-46
2023/01/03 01:12:01;;;;;;;8.40;1.05;;;;;;;5.69;97.85;100422.00;5066361;28;20052;-48
2023/01/03 01:14:29;;;;;;;5.50;1.10;;;;;;;5.77;97.87;100424.75;5066787;28;20053;-48
2023/01/03 01:16:58;;;;;;;6.95;1.40;;;;;;;5.80;98.04;100415.09;5071413;28;20509;-45
2023/01/03 01:19:29;;;;;;;7.65;0.95;;;;;;;5.85;98.19;100393.75;5065404;28;20498;-45
2023/01/03 01:21:56;;;;;;;9.18;1.80;;;;;;;5.88;98.07;100397.81;5066165;28;20041;-45
2023/01/03 01:24:23;;;;;;;7.65;1.00;;;;;;;5.92;98.40;100387.81;5071088;28;20040;-45
2023/01/03 01:26:50;;;;;;;8.05;1.20;;;;;;;5.94;98.56;100391.03;5070405;28;20054;-48
2023/01/03 01:29:18;;;;;;;5.82;1.33;;;;;;;6.00;98.59;100392.50;5070453;28;20495;-45
2023/01/03 01:31:45;;;;;;;4.18;2.53;;;;;;;6.02;98.61;100382.78;5070582;28;20055;-45
2023/01/03 01:34:13;;;;;;;7.97;1.08;;;;;;;6.07;98.70;100382.63;5082510;28;20056;-45
2023/01/03 01:36:41;;;;;;;5.30;1.17;;;;;;;6.08;98.88;100387.00;5069817;28;20444;-47
2023/01/03 01:39:28;;;;;;;5.07;1.30;;;;;;;6.16;99.00;100379.88;5070785;28;20068;-47
2023/01/03 01:45:04;;;;;;;6.43;1.65;;;;;;;6.32;99.23;100369.19;5070598;28;20474;-48
2023/01/03 01:47:43;;;;;;;6.13;1.00;;;;;;;6.35;99.20;100350.09;5069038;28;20053;-47
2023/01/03 01:50:39;;;;;;;11.65;1.75;;;;;;;6.37;98.98;100347.03;5070085;28;20040;-46
2023/01/03 01:53:11;;;;;;;6.03;1.38;;;;;;;6.37;99.17;100342.34;5056002;28;20048;-45
2023/01/03 01:55:51;;;;;;;6.57;1.13;;;;;;;6.40;99.23;100338.94;5069785;28;20048;-49
2023/01/03 01:58:21;;;;;;;9.88;1.40;;;;;;;6.43;99.31;100331.97;5052141;28;20143;-53
2023/01/03 02:00:47;;;;;;;7.93;1.35;;;;;;;6.46;99.73;100337.59;5069711;28;20459;-46
2023/01/03 02:03:14;;;;;;;9.25;1.55;;;;;;;6.48;99.25;100335.34;5070272;28;20048;-55
2023/01/03 02:05:46;;;;;;;9.75;1.95;;;;;;;6.48;99.59;100321.59;5069923;28;20037;-46
2023/01/03 02:08:12;;;;;;;6.47;1.90;;;;;;;6.50;99.67;100318.50;5068746;28;20151;-53
2023/01/03 02:10:39;;;;;;;4.80;1.02;;;;;;;6.51;99.84;100307.19;5068235;28;20304;-46
2023/01/03 02:13:30;;;;;;;8.70;1.20;;;;;;;6.60;100.00;100313.47;5069553;28;20056;-45
2023/01/03 02:16:21;;;;;;;7.35;1.95;;;;;;;6.64;99.94;100306.19;5069680;28;20152;-48
2023/01/03 02:19:07;;;;;;;9.35;0.98;;;;;;;6.66;99.85;100297.59;5070271;28;20052;-45
2023/01/03 02:22:01;;;;;;;9.63;2.58;;;;;;;6.68;99.87;100290.63;5069512;28;20048;-45
2023/01/03 02:24:53;;;;;;;14.43;2.67;;;;;;;6.71;100.00;100289.97;5069657;28;20064;-52
2023/01/03 02:27:32;;;;;;;7.47;1.13;;;;;;;6.69;99.97;100270.25;5058738;28;20048;-46
2023/01/03 02:30:08;;;;;;;8.85;1.33;;;;;;;6.74;100.00;100278.31;5069545;28;20060;-46
2023/01/03 02:32:34;;;;;;;4.38;1.20;;;;;;;6.78;100.00;100263.88;5051444;28;20379;-46
2023/01/03 02:35:05;;;;;;;9.93;1.42;;;;;;;6.79;100.00;100262.72;5050321;28;20486;-45
2023/01/03 02:37:57;;;;;;;9.57;1.10;;;;;;;6.78;100.00;100259.16;5068089;28;20137;-46
2023/01/03 02:40:27;;;;;;;10.25;1.95;;;;;;;6.79;100.00;100257.22;5069374;28;20056;-47
2023/01/03 02:43:25;;;;;;;9.73;1.65;;;;;;;6.81;100.00;100243.94;5067842;28;20037;-51
2023/01/03 02:46:24;;;;;;;8.25;1.70;;;;;;;6.82;100.00;100240.88;5063254;28;20553;-46
2023/01/03 02:49:07;;;;;;;10.88;1.90;;;;;;;6.85;100.00;100226.47;5069480;28;20055;-47
2023/01/03 02:51:41;;;;;;;6.38;1.83;;;;;;;6.86;100.00;100213.50;5057707;28;20052;-54
2023/01/03 02:54:12;;;;;;;8.23;1.05;;;;;;;6.89;100.00;100201.81;5050919;28;20097;-47
2023/01/03 02:56:47;;;;;;;9.88;1.23;;;;;;;6.87;100.00;100190.34;5069118;28;20045;-50
2023/01/03 02:59:19;;;;;;;13.43;2.13;;;;;;;6.86;100.00;100175.78;5050914;28;20044;-45
2023/01/03 03:01:50;;;;;;;11.93;1.50;;;;;;;6.87;100.00;100165.59;5138158;22;20056;-45
2023/01/03 03:04:18;;;;;;;11.55;1.25;;;;;;;6.85;100.00;100165.13;5068749;28;20074;-51
2023/01/03 03:06:59;;;;;;;4.32;0.82;;;;;;;6.85;100.00;100156.88;5067729;28;20040;-51
2023/01/03 03:09:26;;;;;;;5.93;0.73;;;;;;;6.84;100.00;100144.22;5068349;28;20437;-46
2023/01/03 03:14:45;;;;;;;5.63;0.90;;;;;;;6.86;100.00;100129.00;5068649;28;20058;-51
2023/01/03 03:17:16;;;;;;;9.13;1.10;;;;;;;6.89;100.00;100113.75;5072037;28;20076;-48
2023/01/03 03:25:42;;;;;;;3.88;0.98;;;;;;;6.90;100.00;100093.38;5068401;28;20291;-45
2023/01/03 03:31:04;;;;;;;3.50;0.57;;;;;;;6.90;100.00;100065.84;5068496;28;20580;-45
2023/01/03 03:33:36;;;;;;;5.95;1.30;;;;;;;6.91;100.00;100053.72;5068569;28;20044;-46
2023/01/03 03:36:09;;;;;;;3.90;0.75;;;;;;;6.92;100.00;100047.06;5066798;28;20052;-46
2023/01/03 03:38:41;;;;;;;5.10;0.77;;;;;;;6.92;100.00;100034.09;5061104;28;20052;-44
2023/01/03 03:47:38;;;;;;;5.68;0.70;;;;;;;6.98;100.00;100007.19;5060763;28;20059;-45
2023/01/03 03:50:33;;;;;;;5.28;0.90;;;;;;;7.00;100.00;99993.88;5057019;28;20075;-45
2023/01/03 03:53:05;;;;;;;4.07;0.80;;;;;;;6.99;100.00;99982.06;5065287;28;20051;-46
2023/01/03 03:55:53;;;;;;;1.73;0.50;;;;;;;7.02;100.00;99972.34;5066587;28;20284;-45
2023/01/03 03:58:25;;;;;;;9.43;0.90;;;;;;;7.05;100.00;99982.66;5050246;28;20044;-46
2023/01/03 04:00:54;;;;;;;2.67;0.77;;;;;;;7.08;100.00;99962.72;5067532;28;20143;-46
2023/01/03 04:03:22;;;;;;;0.93;0.45;;;;;;;7.07;100.00;99963.88;5064771;28;20091;-47
2023/01/03 04:05:56;;;;;;;2.70;0.52;;;;;;;7.08;100.00;99952.53;5067570;28;20063;-48
2023/01/03 04:08:23;;;;;;;0.95;0.20;;;;;;;7.12;100.00;99958.16;5050062;28;20045;-48
2023/01/03 04:10:50;;;;;;;1.38;0.40;;;;;;;7.12;100.00;99955.41;5067540;28;20102;-48
2023/01/03 04:13:16;;;;;;;3.53;0.30;;;;;;;7.17;100.00;99955.19;5067221;28;20059;-48
2023/01/03 04:15:43;;;;;;;5.65;0.50;;;;;;;7.20;100.00;99946.25;5066489;28;20436;-47
2023/01/03 04:18:10;;;;;;;2.00;0.20;;;;;;;7.22;100.00;99957.72;5074362;28;20090;-46
2023/01/03 04:20:36;;;;;;;1.10;0.20;;;;;;;7.23;100.00;99951.84;5067543;28;20342;-46
2023/01/03 04:23:03;;;;;;;0.85;0.20;;;;;;;7.26;100.00;99955.88;5049983;28;20497;-46
2023/01/03 04:25:30;;;;;;;1.40;0.25;;;;;;;7.27;100.00;99960.25;5065801;28;20437;-46
2023/01/03 04:27:56;;;;;;;0.45;0.10;;;;;;;7.29;100.00;99950.50;5067470;28;20048;-50
2023/01/03 04:30:23;;;;;;;3.33;0.45;;;;;;;7.32;100.00;99947.06;5049476;28;20032;-47
2023/01/03 04:32:49;;;;;;;2.67;0.52;;;;;;;7.32;100.00;99957.25;5067382;28;20044;-46
2023/01/03 04:35:16;;;;;;;1.30;0.20;;;;;;;7.33;100.00;99961.63;5067681;28;20059;-46
2023/01/03 04:37:43;;;;;;;0.25;0.05;;;;;;;7.30;100.00;99960.38;5067143;28;20052;-46
2023/01/03 04:40:10;;;;;;;0.25;0.10;;;;;;;7.31;100.00;99958.41;5067287;28;20052;-45
2023/01/03 04:45:22;;;;;;;0.45;0.17;;;;;;;7.29;100.00;99963.44;5067202;28;20040;-46
2023/01/03 04:47:49;;;;;;;1.65;0.13;;;;;;;7.32;100.00;99957.25;5067212;28;20052;-50
2023/01/03 04:50:15;;;;;;;2.20;0.08;;;;;;;7.42;100.00;99958.75;5067015;28;20052;-47
2023/01/03 04:52:42;;;;;;;0.17;0.10;;;;;;;7.48;100.00;99946.38;5067118;28;20068;-47
2023/01/03 04:55:09;;;;;;;0.75;0.10;;;;;;;7.54;100.00;99954.06;5065346;28;20068;-46
2023/01/03 04:57:35;;;;;;;2.80;0.30;;;;;;;7.61;100.00;99942.47;5066501;28;20113;-47
2023/01/03 05:00:04;;;;;;;0.95;0.20;;;;;;;7.64;100.00;99959.13;5065594;28;20044;-45
2023/01/03 05:02:31;;;;;;;4.32;0.75;;;;;;;7.67;100.00;99961.19;5063520;28;20144;-47
2023/01/03 05:04:58;;;;;;;2.65;0.45;;;;;;;7.75;100.00;99960.25;5066671;28;20391;-47
2023/01/03 05:07:28;;;;;;;3.97;0.40;;;;;;;7.83;100.00;99983.34;5066528;28;20048;-46
2023/01/03 05:09:55;;;;;;;5.68;0.30;;;;;;;7.86;100.00;99994.44;5067141;28;20052;-46
2023/01/03 05:12:22;;;;;;;2.10;0.28;;;;;;;7.89;100.00;100002.03;5066424;28;20048;-48
2023/01/03 05:14:49;;;;;;;4.88;0.45;;;;;;;7.90;100.00;100011.91;5048691;28;20376;-47
2023/01/03 05:17:18;;;;;;;1.70;0.25;;;;;;;7.92;100.00;100015.13;5072089;28;20470;-50
2023/01/03 05:28:03;;;;;;;4.47;0.70;;;;;;;7.98;100.00;100019.25;5060097;28;20486;-48
2023/01/03 05:30:30;;;;;;;2.95;0.98;;;;;;;8.00;100.00;100016.16;5066497;28;20056;-49
2023/01/03 05:32:57;;;;;;;6.05;0.90;;;;;;;7.99;100.00;100015.34;5065520;28;20151;-46
2023/01/03 05:35:23;;;;;;;2.33;0.80;;;;;;;7.99;100.00;100020.84;5054543;28;20054;-46
2023/01/03 05:37:53;;;;;;;4.13;0.80;;;;;;;8.05;100.00;100020.66;5066139;28;20143;-53
2023/01/03 05:40:20;;;;;;;8.20;1.30;;;;;;;8.05;100.00;100017.88;5066325;28;20056;-46
2023/01/03 05:42:46;;;;;;;6.95;1.38;;;;;;;8.06;100.00;100025.00;5066262;28;20375;-45
2023/01/03 05:45:13;;;;;;;9.90;1.70;;;;;;;8.06;100.00;100019.47;5066628;28;20094;-48
2023/01/03 05:47:40;;;;;;;6.65;1.13;;;;;;;8.07;100.00;100023.84;5066554;28;20189;-47
2023/01/03 05:50:07;;;;;;;9.93;1.13;;;;;;;8.09;100.00;100024.31;5065569;28;20055;-45
2023/01/03 05:52:33;;;;;;;12.75;1.00;;;;;;;8.07;100.00;100032.13;5066053;28;20051;-45
2023/01/03 05:55:00;;;;;;;8.98;2.13;;;;;;;8.04;100.00;100021.78;5047879;28;20353;-47
2023/01/03 05:57:27;;;;;;;5.22;1.08;;;;;;;8.02;100.00;100024.09;5066186;28;20541;-47
2023/01/03 06:00:01;;;;;;;9.00;1.30;;;;;;;7.99;100.00;100037.38;5066193;28;20044;-46
2023/01/03 06:02:28;;;;;;;6.20;1.58;;;;;;;7.99;100.00;100014.56;5062987;28;20497;-47
2023/01/03 06:04:55;;;;;;;5.70;1.40;;;;;;;8.03;100.00;100026.50;5066042;28;20446;-45
2023/01/03 06:07:21;;;;;;;3.67;1.17;;;;;;;8.04;100.00;100021.78;5061724;28;20411;-45
2023/01/03 06:09:48;;;;;;;10.70;1.75;;;;;;;8.06;100.00;100039.59;5060872;28;20053;-49
2023/01/03 06:12:15;;;;;;;8.95;1.73;;;;;;;8.06;100.00;100036.03;5070083;28;20045;-45
2023/01/03 06:14:41;;;;;;;10.63;2.45;;;;;;;8.06;100.00;100030.50;5070156;28;20044;-45
2023/01/03 06:19:53;;;;;;;9.77;1.90;;;;;;;8.02;100.00;100046.16;5069527;28;20044;-45
2023/01/03 06:22:20;;;;;;;7.63;1.42;;;;;;;8.02;100.00;100046.16;5070018;28;20040;-51
2023/01/03 06:24:47;;;;;;;9.77;1.98;;;;;;;7.98;100.00;100055.09;5050608;28;20045;-50
2023/01/03 06:27:14;;;;;;;11.38;1.42;;;;;;;7.97;100.00;100064.50;5069603;28;20044;-46
2023/01/03 06:29:41;;;;;;;10.82;1.95;;;;;;;7.97;100.00;100050.72;5068983;28;20044;-51
2023/01/03 06:32:07;;;;;;;12.25;1.98;;;;;;;7.98;100.00;100046.03;5069553;28;20036;-46
2023/01/03 06:34:36;;;;;;;15.25;2.10;;;;;;;7.97;100.00;100044.41;5069639;28;20045;-49
2023/01/03 06:37:03;;;;;;;12.38;2.10;;;;;;;7.97;100.00;100045.22;5069404;28;20067;-45
2023/01/03 06:39:29;;;;;;;10.52;2.22;;;;;;;7.97;100.00;100049.91;5069436;28;20101;-47
2023/01/03 06:41:56;;;;;;;9.43;3.20;;;;;;;7.96;100.00;100046.38;5068610;28;20144;-51
2023/01/03 06:44:23;;;;;;;8.77;3.13;;;;;;;7.95;100.00;100060.47;5068250;28;20775;-45
2023/01/03 06:55:06;;;;;;;10.88;2.25;;;;;;;7.85;100.00;100052.69;5067568;28;20055;-47
2023/01/03 06:57:33;;;;;;;13.10;2.40;;;;;;;7.84;100.00;100062.88;5068496;28;20040;-47
2023/01/03 06:59:59;;;;;;;9.63;2.58;;;;;;;7.82;100.00;100054.16;5067558;28;20045;-48
2023/01/03 07:02:28;;;;;;;15.07;3.72;;;;;;;7.81;100.00;100065.56;5048739;28;20049;-49
2023/01/03 07:04:55;;;;;;;17.40;3.58;;;;;;;7.81;100.00;100074.59;5050625;28;20053;-46
2023/01/03 07:07:21;;;;;;;13.23;3.33;;;;;;;7.83;100.00;100066.00;5068476;28;20032;-47
2023/01/03 07:09:48;;;;;;;14.35;3.17;;;;;;;7.85;100.00;100075.53;5068895;28;20044;-46
2023/01/03 07:15:04;;;;;;;16.48;3.63;;;;;;;7.89;100.00;100064.59;5068198;28;20063;-46
2023/01/03 07:17:31;;;;;;;15.43;3.33;;;;;;;7.90;100.00;100067.03;5075200;28;20409;-45
2023/01/03 07:19:58;;;;;;;15.38;3.40;;;;;;;7.92;100.00;100070.25;5067705;28;20037;-46
2023/01/03 07:22:25;;;;;;;20.83;3.38;;;;;;;7.92;100.00;100072.19;5068661;28;20040;-48
2023/01/03 07:24:52;;;;;;;19.17;5.50;;;;;;;7.92;100.00;100067.50;5051171;28;20114;-51
2023/01/03 07:27:19;;;;;;;16.98;4.30;;;;;;;7.92;100.00;100075.75;5068962;28;20040;-53
2023/01/03 07:29:45;;;;;;;18.42;3.78;;;;;;;7.94;100.00;100067.94;5050661;28;20707;-48
2023/01/03 07:32:12;;;;;;;20.27;2.95;;;;;;;7.93;100.00;100069.13;5065442;28;20120;-45
2023/01/03 07:34:38;;;;;;;27.85;3.40;;;;;;;7.94;100.00;100070.69;5064104;28;20044;-53
2023/01/03 07:37:05;;;;;;;14.02;3.97;;;;;;;7.95;100.00;100066.00;5067744;28;20060;-47
2023/01/03 07:39:32;;;;;;;20.95;4.13;;;;;;;7.98;100.00;100071.63;5067812;28;20044;-51
2023/01/03 07:44:43;;;;;;;15.85;3.03;;;;;;;7.99;100.00;100058.66;5068130;28;20051;-46
2023/01/03 07:47:10;;;;;;;19.08;3.20;;;;;;;7.98;100.00;100051.53;5066273;28;20033;-49
2023/01/03 07:49:37;;;;;;;19.90;3.97;;;;;;;7.98;100.00;100046.81;5067482;28;20048;-46
2023/01/03 07:52:03;;;;;;;22.05;3.47;;;;;;;7.95;100.00;100036.50;5068120;28;20490;-47
2023/01/03 07:54:30;;;;;;;29.38;5.15;;;;;;;7.94;100.00;100043.13;5050796;28;20059;-51
2023/01/03 07:56:57;;;;;;;20.00;4.30;;;;;;;7.96;100.00;100048.31;5032755;28;20667;-50
2023/01/03 07:59:23;;;;;;;12.90;3.42;;;;;;;7.97;100.00;100047.97;5014244;28;20052;-52
2023/01/03 08:01:50;;;;;;;30.23;5.40;;;;;;;7.97;100.00;100044.41;5054092;28;20055;-47
2023/01/03 08:04:17;;;;;;;22.40;3.35;;;;;;;7.98;100.00;100037.75;5066984;28;20519;-46
2023/01/03 08:06:44;;;;;;;22.77;3.33;;;;;;;7.98;100.00;100037.75;5065047;28;20640;-47
2023/01/03 08:14:43;;;;;;;16.40;4.68;;;;;;;7.94;100.00;100040.38;5067766;28;20127;-48
2023/01/03 08:17:09;;;;;;;10.70;3.08;;;;;;;7.94;100.00;100028.56;5073900;28;20466;-46
2023/01/03 08:19:36;;;;;;;22.08;3.17;;;;;;;7.95;100.00;100019.94;5067552;28;20048;-49
2023/01/03 08:22:10;;;;;;;21.83;3.50;;;;;;;7.96;100.00;100026.28;5067754;28;20045;-46
2023/01/03 08:24:37;;;;;;;23.88;4.32;;;;;;;7.97;100.00;100028.66;5067023;28;20037;-50
2023/01/03 08:27:04;;;;;;;12.82;4.35;;;;;;;7.99;100.00;100031.09;5066924;28;20048;-45
2023/01/03 08:29:30;;;;;;;17.02;3.33;;;;;;;8.02;100.00;100016.63;5049407;28;20048;-47
2023/01/03 08:31:58;;;;;;;14.95;2.85;;;;;;;8.04;100.00;100025.34;5066047;28;20048;-50
2023/01/03 08:34:32;;;;;;;14.80;3.70;;;;;;;8.05;100.00;100012.38;5080448;28;20063;-45
2023/01/03 08:37:06;;;;;;;14.43;2.53;;;;;;;8.06;100.00;100009.25;5065925;28;20045;-47
2023/01/03 08:39:38;;;;;;;25.98;5.10;;;;;;;8.09;100.00;100016.03;5066736;28;20574;-48
2023/01/03 08:42:07;;;;;;;24.95;3.80;;;;;;;8.10;100.00;100009.38;5066036;28;20494;-45
2023/01/03 08:44:35;;;;;;;14.40;2.20;;;;;;;8.11;100.00;99999.94;5066783;28;20062;-45
2023/01/03 08:47:05;;;;;;;18.42;3.33;;;;;;;8.13;100.00;99997.66;5066864;28;20517;-49
2023/01/03 08:49:34;;;;;;;13.90;3.17;;;;;;;8.13;100.00;99994.91;5067125;28;20049;-45
2023/01/03 08:52:02;;;;;;;15.45;3.67;;;;;;;8.14;100.00;99996.50;5067133;28;20559;-47
2023/01/03 08:54:28;;;;;;;9.73;2.95;;;;;;;8.15;100.00;99989.84;5066571;28;20098;-46
2023/01/03 08:56:55;;;;;;;11.10;2.38;;;;;;;8.18;100.00;99989.16;5066260;28;20040;-46
2023/01/03 08:59:22;;;;;;;11.82;2.88;;;;;;;8.20;100.00;99995.94;5066939;28;20115;-46
2023/01/03 09:01:48;;;;;;;17.67;3.03;;;;;;;8.21;100.00;99996.72;5065414;28;20051;-45
2023/01/03 09:04:15;;;;;;;16.48;2.90;;;;;;;8.21;100.00;99982.91;5066329;28;20036;-46
2023/01/03 09:06:42;;;;;;;22.60;2.45;;;;;;;8.24;100.00;99987.75;5066578;28;20512;-46
2023/01/03 09:09:08;;;;;;;21.38;4.28;;;;;;;8.26;100.00;99979.94;5066628;28;20037;-47
2023/01/03 09:11:35;;;;;;;7.72;1.85;;;;;;;8.27;100.00;99981.56;5048777;28;20064;-52
2023/01/03 09:14:02;;;;;;;9.52;2.90;;;;;;;8.28;100.00;99977.66;5064512;28;20032;-46
2023/01/03 09:16:28;;;;;;;8.40;2.25;;;;;;;8.29;100.00;99985.59;5069987;28;20043;-46
2023/01/03 09:18:55;;;;;;;9.70;4.15;;;;;;;8.31;100.00;99977.75;5066711;28;20044;-46
2023/01/03 09:21:22;;;;;;;11.85;1.77;;;;;;;8.30;100.00;99972.59;5067074;28;20070;-46
2023/01/03 09:23:49;;;;;;;16.10;2.35;;;;;;;8.30;100.00;99961.56;5066858;28;20056;-46
2023/01/03 09:26:16;;;;;;;8.20;1.15;;;;;;;8.32;100.00;99964.78;5066640;28;20055;-47
2023/01/03 09:28:43;;;;;;;11.70;2.58;;;;;;;8.34;100.00;99965.25;5066168;28;20456;-45
2023/01/03 09:31:09;;;;;;;14.95;2.05;;;;;;;8.37;100.00;99959.00;5065677;28;20052;-49
2023/01/03 09:33:36;;;;;;;4.65;1.17;;;;;;;8.38;100.00;99955.13;5066577;28;20067;-45
2023/01/03 09:36:04;;;;;;;12.27;1.20;;;;;;;8.39;100.00;99948.47;5066093;28;20063;-46
2023/01/03 09:38:30;;;;;;;7.35;1.33;;;;;;;8.41;100.00;99954.41;5066046;28;20055;-50
2023/01/03 09:41:04;;;;;;;8.38;1.17;;;;;;;8.42;100.00;99944.97;5066216;28;20040;-45
2023/01/03 09:43:42;;;;;;;8.13;2.38;;;;;;;8.44;100.00;99937.19;5067908;28;20040;-47
2023/01/03 09:46:24;;;;;;;6.78;1.33;;;;;;;8.45;100.00;99933.25;5065618;28;20052;-45
2023/01/03 09:48:53;;;;;;;8.07;1.50;;;;;;;8.44;100.00;99934.41;5069769;28;20043;-48
2023/01/03 10:06:09;;;;;;;7.85;2.10;;;;;;;8.41;100.00;99907.53;5068812;28;20044;-48
2023/01/03 10:09:01;;;;;;;12.35;2.67;;;;;;;8.41;100.00;99896.50;5069748;28;20057;-46
2023/01/03 10:11:31;;;;;;;4.28;1.20;;;;;;;8.39;100.00;99894.06;5069645;28;20479;-53
2023/01/03 10:14:19;;;;;;;6.75;1.65;;;;;;;8.40;100.00;99892.94;5068517;28;20127;-45
2023/01/03 10:17:24;;;;;;;8.00;2.08;;;;;;;8.41;100.00;99885.47;5075187;28;20490;-48
2023/01/03 10:20:17;;;;;;;7.38;1.45;;;;;;;8.41;100.00;99883.50;5069527;28;20119;-46
2023/01/03 10:22:45;;;;;;;11.95;1.42;;;;;;;8.44;100.00;99879.25;5068813;28;20517;-47
2023/01/03 10:25:16;;;;;;;4.55;1.52;;;;;;;8.47;100.00;99864.75;5069516;28;20135;-46
2023/01/03 10:27:50;;;;;;;12.40;3.25;;;;;;;8.52;100.00;99872.78;5069584;28;20413;-46
2023/01/03 10:30:26;;;;;;;13.60;1.30;;;;;;;8.55;100.00;99877.59;5069583;28;20044;-48
2023/01/03 10:33:08;;;;;;;7.00;1.40;;;;;;;8.59;100.00;99872.97;5070276;28;20051;-46
2023/01/03 10:35:36;;;;;;;10.15;2.05;;;;;;;8.59;100.00;99867.44;5079848;28;20047;-47
2023/01/03 10:38:03;;;;;;;7.50;1.35;;;;;;;8.61;100.00;99873.41;5069340;28;20072;-48
2023/01/03 10:40:35;;;;;;;8.32;1.15;;;;;;;8.61;100.00;99867.88;5069303;28;20049;-46
2023/01/03 10:43:38;;;;;;;8.60;1.90;;;;;;;8.63;100.00;99856.50;5070053;28;20048;-47
2023/01/03 10:46:24;;;;;;;7.78;2.00;;;;;;;8.63;100.00;99857.28;5042771;28;20079;-46
2023/01/03 10:48:53;;;;;;;4.53;1.15;;;;;;;8.64;100.00;99853.38;5069782;28;20082;-47
2023/01/03 10:51:52;;;;;;;1.85;0.85;;;;;;;8.66;100.00;99845.53;5069271;28;20112;-50
2023/01/03 10:54:19;;;;;;;4.28;1.02;;;;;;;8.70;100.00;99845.66;5068583;28;20052;-46
2023/01/03 10:56:48;;;;;;;4.85;1.17;;;;;;;8.71;100.00;99825.97;5068634;28;20083;-47
2023/01/03 10:59:14;;;;;;;2.95;0.68;;;;;;;8.74;100.00;99814.22;5069316;28;20079;-46
2023/01/03 11:02:02;;;;;;;3.35;0.50;;;;;;;8.79;100.00;99807.66;5068795;28;20063;-46
2023/01/03 11:04:31;;;;;;;4.45;1.17;;;;;;;8.81;100.00;99794.28;5068020;28;20074;-47
2023/01/03 11:07:12;;;;;;;3.50;1.15;;;;;;;8.82;100.00;99793.94;5068689;28;20048;-50
2023/01/03 11:09:57;;;;;;;2.42;1.20;;;;;;;8.85;100.00;99782.19;5050882;28;20041;-46
2023/01/03 11:12:34;;;;;;;4.82;1.23;;;;;;;8.86;100.00;99758.94;5068615;28;20055;-47
2023/01/03 11:15:14;;;;;;;4.22;0.88;;;;;;;8.87;100.00;99771.56;5067816;28;20055;-53
2023/01/03 11:17:56;;;;;;;9.13;2.63;;;;;;;8.91;100.00;99768.91;5073953;28;20048;-46
2023/01/03 11:20:49;;;;;;;3.35;1.25;;;;;;;8.91;100.00;99764.19;5068618;28;20048;-48
2023/01/03 11:23:50;;;;;;;7.53;1.15;;;;;;;8.92;100.00;99763.03;5068639;28;20401;-45
2023/01/03 11:26:23;;;;;;;6.32;1.00;;;;;;;8.91;100.00;99747.63;5068582;28;20059;-47
2023/01/03 11:29:01;;;;;;;3.50;1.50;;;;;;;8.90;100.00;99740.50;5068543;28;20040;-46
2023/01/03 11:31:58;;;;;;;4.07;1.10;;;;;;;8.91;100.00;99730.28;5056975;28;20061;-46
2023/01/03 11:34:46;;;;;;;4.60;1.92;;;;;;;8.90;100.00;99729.47;5079718;28;20059;-49
2023/01/03 11:37:57;;;;;;;6.28;1.02;;;;;;;8.90;100.00;99718.41;5060581;28;20482;-47
2023/01/03 11:40:29;;;;;;;5.00;1.65;;;;;;;8.90;100.00;99701.84;5060308;28;20059;-49
2023/01/03 11:43:07;;;;;;;;;;;;;;;8.91;100.00;99686.09;5066570;28;20090;-46
2023/01/03 11:45:43;;;;;;;2.88;1.02;;;;;;;8.91;100.00;99673.09;5068183;28;19978;-51
2023/01/03 11:48:18;;;;;;;1.85;1.20;;;;;;;8.94;100.00;99675.16;5046750;28;20450;-47
2023/01/03 11:51:10;;;;;;;2.67;1.15;;;;;;;8.96;100.00;99672.03;5068276;28;20064;-47
2023/01/03 11:53:47;;;;;;;2.72;0.50;;;;;;;8.97;100.00;99654.31;5067973;28;20410;-46
2023/01/03 11:56:43;;;;;;;1.95;0.88;;;;;;;8.97;100.00;99663.41;5055977;28;20466;-49
2023/01/03 11:59:49;;;;;;;4.10;1.88;;;;;;;8.98;100.00;99664.97;5067646;28;20113;-46
2023/01/03 12:02:53;;;;;;;1.95;0.93;;;;;;;8.99;100.00;99660.25;5067375;28;20067;-46
2023/01/03 12:05:37;;;;;;;0.90;0.30;;;;;;;9.05;100.00;99647.78;5066586;28;20522;-46
2023/01/03 12:08:22;;;;;;;0.45;0.30;;;;;;;9.15;100.00;99625.13;5050042;28;20414;-46
2023/01/03 12:11:20;;;;;;;0.22;0.22;;;;;;;9.23;100.00;99635.16;5067447;28;20136;-46
2023/01/03 12:14:08;;;;;;;0.63;0.15;;;;;;;9.28;100.00;99625.75;5067546;28;20135;-45
2023/01/03 12:16:43;;;;;;;0.43;0.28;;;;;;;9.36;100.00;99624.75;5072740;28;20044;-47
2023/01/03 12:19:39;;;;;;;0.10;0.10;;;;;;;9.44;100.00;99609.91;5067257;28;20082;-46
2023/01/03 12:22:34;;;;;;;0.45;0.30;;;;;;;9.50;100.00;99598.22;5066381;28;20033;-52
2023/01/03 12:25:05;;;;;;;0.50;0.20;;;;;;;9.54;100.00;99596.31;5067533;28;20341;-46
2023/01/03 12:27:59;;;;;;;0.75;0.40;;;;;;;9.60;100.00;99602.34;5067215;28;20055;-49
2023/01/03 12:30:38;;;;;;;1.50;0.57;;;;;;;9.61;100.00;99588.13;5066139;28;20040;-46
2023/01/03 12:33:30;;;;;;;1.20;0.68;;;;;;;9.62;100.00;99588.94;5066905;28;20461;-45
2023/01/03 12:36:15;;;;;;;0.70;0.40;;;;;;;9.61;100.00;99587.38;5067501;28;20490;-46
2023/01/03 12:38:51;;;;;;;1.23;0.65;;;;;;;9.58;100.00;99571.50;5030487;28;20056;-48
2023/01/03 12:41:35;;;;;;;1.48;0.70;;;;;;;9.57;100.00;99572.66;5063449;28;20094;-48
2023/01/03 12:44:20;;;;;;;3.67;1.10;;;;;;;9.56;100.00;99565.53;5066909;28;20127;-45
2023/01/03 12:46:51;;;;;;;2.08;0.65;;;;;;;9.54;100.00;99554.06;5037454;28;20044;-45
2023/01/03 12:49:18;;;;;;;1.75;0.85;;;;;;;9.57;100.00;99547.81;5066818;28;20049;-45
2023/01/03 12:51:44;;;;;;;3.63;1.27;;;;;;;9.57;100.00;99542.28;5066778;28;20059;-45
2023/01/03 12:54:17;;;;;;;2.00;1.35;;;;;;;9.58;100.00;99544.66;5066831;28;20060;-47
2023/01/03 12:57:17;;;;;;;3.33;0.70;;;;;;;9.57;100.00;99545.84;5066165;28;20494;-46
2023/01/03 13:00:22;;;;;;;4.80;1.42;;;;;;;9.57;100.00;99525.69;5059228;28;20490;-46
2023/01/03 13:02:52;;;;;;;4.68;1.38;;;;;;;9.56;100.00;99522.13;5066199;28;20557;-45